sensor_id;sensor_type;location;lat;lon;timestamp;temperature;humidity
40932;DHT22;36257;46.052;12.540;2023-05-17T00:02:15;18.90;63.40
40932;DHT22;36257;46.052;12.540;2023-05-17T00:04:41;18.90;63.90
40932;DHT22;36257;46.052;12.540;2023-05-17T00:07:07;18.90;63.60
40932;DHT22;36257;46.052;12.540;2023-05-17T00:09:32;18.90;63.40
40932;DHT22;36257;46.052;12.540;2023-05-17T00:11:58;18.90;63.70
40932;DHT22;36257;46.052;12.540;2023-05-17T00:14:23;18.90;63.30
40932;DHT22;36257;46.052;12.540;2023-05-17T00:16:49;18.90;63.70
40932;DHT22;36257;46.052;12.540;2023-05-17T00:19:17;18.80;63.40
40932;DHT22;36257;46.052;12.540;2023-05-17T00:21:42;18.80;63.30
40932;DHT22;36257;46.052;12.540;2023-05-17T00:24:08;18.80;63.10
40932;DHT22;36257;46.052;12.540;2023-05-17T00:26:34;18.80;63.30
40932;DHT22;36257;46.052;12.540;2023-05-17T00:29:00;18.90;63.80
40932;DHT22;36257;46.052;12.540;2023-05-17T00:31:25;18.90;63.20
40932;DHT22;36257;46.052;12.540;2023-05-17T00:33:51;18.90;63.10
40932;DHT22;36257;46.052;12.540;2023-05-17T00:36:16;18.90;64.00
40932;DHT22;36257;46.052;12.540;2023-05-17T00:38:42;18.90;63.10
40932;DHT22;36257;46.052;12.540;2023-05-17T00:41:08;18.90;63.10
40932;DHT22;36257;46.052;12.540;2023-05-17T00:43:33;19.00;62.90
40932;DHT22;36257;46.052;12.540;2023-05-17T00:45:59;19.00;62.70
40932;DHT22;36257;46.052;12.540;2023-05-17T00:48:25;19.00;62.30
40932;DHT22;36257;46.052;12.540;2023-05-17T00:50:52;19.00;62.50
40932;DHT22;36257;46.052;12.540;2023-05-17T00:53:18;19.00;63.20
40932;DHT22;36257;46.052;12.540;2023-05-17T00:55:44;19.00;65.30
40932;DHT22;36257;46.052;12.540;2023-05-17T00:58:11;18.70;66.50
40932;DHT22;36257;46.052;12.540;2023-05-17T01:00:37;18.50;67.80
40932;DHT22;36257;46.052;12.540;2023-05-17T01:03:03;18.30;68.00
40932;DHT22;36257;46.052;12.540;2023-05-17T01:05:29;18.10;68.70
40932;DHT22;36257;46.052;12.540;2023-05-17T01:07:55;18.10;68.70
40932;DHT22;36257;46.052;12.540;2023-05-17T01:10:35;17.90;69.50
40932;DHT22;36257;46.052;12.540;2023-05-17T01:13:08;17.90;69.60
40932;DHT22;36257;46.052;12.540;2023-05-17T01:15:37;17.80;69.60
40932;DHT22;36257;46.052;12.540;2023-05-17T01:20:42;17.70;70.40
40932;DHT22;36257;46.052;12.540;2023-05-17T01:26:10;17.60;70.50
40932;DHT22;36257;46.052;12.540;2023-05-17T01:28:39;17.60;71.20
40932;DHT22;36257;46.052;12.540;2023-05-17T01:31:07;17.60;71.50
40932;DHT22;36257;46.052;12.540;2023-05-17T01:33:33;17.40;72.00
40932;DHT22;36257;46.052;12.540;2023-05-17T01:36:00;17.40;72.30
40932;DHT22;36257;46.052;12.540;2023-05-17T01:38:25;17.50;72.40
40932;DHT22;36257;46.052;12.540;2023-05-17T01:40:54;17.40;73.00
40932;DHT22;36257;46.052;12.540;2023-05-17T01:43:25;17.40;71.90
40932;DHT22;36257;46.052;12.540;2023-05-17T01:46:18;17.30;72.20
40932;DHT22;36257;46.052;12.540;2023-05-17T01:48:54;17.30;71.90
40932;DHT22;36257;46.052;12.540;2023-05-17T01:51:22;17.20;71.00
40932;DHT22;36257;46.052;12.540;2023-05-17T01:53:56;17.20;72.00
40932;DHT22;36257;46.052;12.540;2023-05-17T01:56:29;17.10;72.10
40932;DHT22;36257;46.052;12.540;2023-05-17T01:58:58;17.10;71.90
40932;DHT22;36257;46.052;12.540;2023-05-17T02:01:26;17.20;71.70
40932;DHT22;36257;46.052;12.540;2023-05-17T02:03:53;17.20;71.90
40932;DHT22;36257;46.052;12.540;2023-05-17T02:06:18;17.20;72.20
40932;DHT22;36257;46.052;12.540;2023-05-17T02:08:44;17.10;72.00
40932;DHT22;36257;46.052;12.540;2023-05-17T02:11:09;17.10;71.70
40932;DHT22;36257;46.052;12.540;2023-05-17T02:13:35;17.20;71.90
40932;DHT22;36257;46.052;12.540;2023-05-17T02:16:02;17.10;72.00
40932;DHT22;36257;46.052;12.540;2023-05-17T02:18:28;17.10;71.50
40932;DHT22;36257;46.052;12.540;2023-05-17T02:20:54;17.10;71.70
40932;DHT22;36257;46.052;12.540;2023-05-17T02:23:20;17.00;72.90
40932;DHT22;36257;46.052;12.540;2023-05-17T02:25:46;17.00;73.50
40932;DHT22;36257;46.052;12.540;2023-05-17T02:28:11;17.00;74.40
40932;DHT22;36257;46.052;12.540;2023-05-17T02:30:37;16.90;75.40
40932;DHT22;36257;46.052;12.540;2023-05-17T02:33:06;16.90;75.70
40932;DHT22;36257;46.052;12.540;2023-05-17T02:35:32;16.80;75.90
40932;DHT22;36257;46.052;12.540;2023-05-17T02:37:58;16.70;76.60
40932;DHT22;36257;46.052;12.540;2023-05-17T02:40:24;16.60;77.10
40932;DHT22;36257;46.052;12.540;2023-05-17T02:42:50;16.50;77.80
40932;DHT22;36257;46.052;12.540;2023-05-17T02:45:15;16.40;78.30
40932;DHT22;36257;46.052;12.540;2023-05-17T02:47:41;16.40;78.00
40932;DHT22;36257;46.052;12.540;2023-05-17T02:50:07;16.40;78.20
40932;DHT22;36257;46.052;12.540;2023-05-17T02:52:33;16.40;78.90
40932;DHT22;36257;46.052;12.540;2023-05-17T02:54:58;16.20;79.00
40932;DHT22;36257;46.052;12.540;2023-05-17T02:57:24;16.10;79.60
40932;DHT22;36257;46.052;12.540;2023-05-17T02:59:50;16.10;79.40
40932;DHT22;36257;46.052;12.540;2023-05-17T03:02:16;16.10;79.10
40932;DHT22;36257;46.052;12.540;2023-05-17T03:04:41;16.10;79.80
40932;DHT22;36257;46.052;12.540;2023-05-17T03:07:08;16.10;80.20
40932;DHT22;36257;46.052;12.540;2023-05-17T03:09:34;16.00;80.40
40932;DHT22;36257;46.052;12.540;2023-05-17T03:12:00;15.90;80.90
40932;DHT22;36257;46.052;12.540;2023-05-17T03:14:26;15.90;81.10
40932;DHT22;36257;46.052;12.540;2023-05-17T03:16:51;15.90;81.70
40932;DHT22;36257;46.052;12.540;2023-05-17T03:19:17;16.00;81.50
40932;DHT22;36257;46.052;12.540;2023-05-17T03:21:42;15.90;81.50
40932;DHT22;36257;46.052;12.540;2023-05-17T03:24:08;15.90;81.50
40932;DHT22;36257;46.052;12.540;2023-05-17T03:26:34;15.80;81.70
40932;DHT22;36257;46.052;12.540;2023-05-17T03:28:59;15.80;81.80
40932;DHT22;36257;46.052;12.540;2023-05-17T03:31:26;15.80;81.70
40932;DHT22;36257;46.052;12.540;2023-05-17T03:33:52;15.70;82.30
40932;DHT22;36257;46.052;12.540;2023-05-17T03:36:17;15.60;83.30
40932;DHT22;36257;46.052;12.540;2023-05-17T03:38:43;15.60;82.90
40932;DHT22;36257;46.052;12.540;2023-05-17T03:41:09;15.60;82.50
40932;DHT22;36257;46.052;12.540;2023-05-17T03:43:35;15.60;82.40
40932;DHT22;36257;46.052;12.540;2023-05-17T03:46:01;15.50;82.50
40932;DHT22;36257;46.052;12.540;2023-05-17T03:48:26;15.50;83.70
40932;DHT22;36257;46.052;12.540;2023-05-17T03:50:52;15.60;81.80
40932;DHT22;36257;46.052;12.540;2023-05-17T03:53:18;15.70;80.00
40932;DHT22;36257;46.052;12.540;2023-05-17T03:55:43;15.80;79.80
40932;DHT22;36257;46.052;12.540;2023-05-17T03:58:09;15.80;79.70
40932;DHT22;36257;46.052;12.540;2023-05-17T04:00:35;15.80;80.10
40932;DHT22;36257;46.052;12.540;2023-05-17T04:03:01;15.80;81.80
40932;DHT22;36257;46.052;12.540;2023-05-17T04:05:27;15.80;81.40
40932;DHT22;36257;46.052;12.540;2023-05-17T04:07:52;15.90;80.40
40932;DHT22;36257;46.052;12.540;2023-05-17T04:10:18;16.00;79.80
40932;DHT22;36257;46.052;12.540;2023-05-17T04:12:44;16.00;80.10
40932;DHT22;36257;46.052;12.540;2023-05-17T04:15:10;16.00;80.60
40932;DHT22;36257;46.052;12.540;2023-05-17T04:17:36;16.00;80.60
40932;DHT22;36257;46.052;12.540;2023-05-17T04:20:03;15.90;81.00
40932;DHT22;36257;46.052;12.540;2023-05-17T04:22:31;15.80;81.10
40932;DHT22;36257;46.052;12.540;2023-05-17T04:24:56;15.80;80.00
40932;DHT22;36257;46.052;12.540;2023-05-17T04:27:22;15.90;80.60
40932;DHT22;36257;46.052;12.540;2023-05-17T04:29:47;16.00;81.00
40932;DHT22;36257;46.052;12.540;2023-05-17T04:32:13;15.90;82.30
40932;DHT22;36257;46.052;12.540;2023-05-17T04:34:39;15.80;82.50
40932;DHT22;36257;46.052;12.540;2023-05-17T04:37:05;15.90;82.40
40932;DHT22;36257;46.052;12.540;2023-05-17T04:39:31;15.90;83.30
40932;DHT22;36257;46.052;12.540;2023-05-17T04:41:57;16.10;83.90
40932;DHT22;36257;46.052;12.540;2023-05-17T04:44:22;16.00;84.90
40932;DHT22;36257;46.052;12.540;2023-05-17T04:46:48;15.90;84.30
40932;DHT22;36257;46.052;12.540;2023-05-17T04:49:14;16.00;84.40
40932;DHT22;36257;46.052;12.540;2023-05-17T04:51:40;16.00;84.20
40932;DHT22;36257;46.052;12.540;2023-05-17T04:54:06;16.00;83.20
40932;DHT22;36257;46.052;12.540;2023-05-17T04:56:34;16.00;83.20
40932;DHT22;36257;46.052;12.540;2023-05-17T04:59:01;16.00;83.90
40932;DHT22;36257;46.052;12.540;2023-05-17T05:01:27;16.00;84.60
40932;DHT22;36257;46.052;12.540;2023-05-17T05:03:55;15.90;84.60
40932;DHT22;36257;46.052;12.540;2023-05-17T05:06:21;15.90;85.60
40932;DHT22;36257;46.052;12.540;2023-05-17T05:08:47;15.70;85.60
40932;DHT22;36257;46.052;12.540;2023-05-17T05:11:13;15.70;86.30
40932;DHT22;36257;46.052;12.540;2023-05-17T05:13:38;15.80;87.60
40932;DHT22;36257;46.052;12.540;2023-05-17T05:16:06;15.80;87.20
40932;DHT22;36257;46.052;12.540;2023-05-17T05:18:32;16.00;87.70
40932;DHT22;36257;46.052;12.540;2023-05-17T05:20:57;16.00;88.40
40932;DHT22;36257;46.052;12.540;2023-05-17T05:23:23;16.00;89.20
40932;DHT22;36257;46.052;12.540;2023-05-17T05:25:49;15.80;89.40
40932;DHT22;36257;46.052;12.540;2023-05-17T05:28:15;15.80;90.50
40932;DHT22;36257;46.052;12.540;2023-05-17T05:30:40;15.90;86.30
40932;DHT22;36257;46.052;12.540;2023-05-17T05:33:06;15.90;86.90
40932;DHT22;36257;46.052;12.540;2023-05-17T05:35:32;15.90;86.20
40932;DHT22;36257;46.052;12.540;2023-05-17T05:37:58;16.00;87.60
40932;DHT22;36257;46.052;12.540;2023-05-17T05:40:24;16.00;89.00
40932;DHT22;36257;46.052;12.540;2023-05-17T05:42:52;16.00;89.20
40932;DHT22;36257;46.052;12.540;2023-05-17T05:45:19;16.00;89.60
40932;DHT22;36257;46.052;12.540;2023-05-17T05:47:46;16.10;90.90
40932;DHT22;36257;46.052;12.540;2023-05-17T05:50:11;16.10;90.20
40932;DHT22;36257;46.052;12.540;2023-05-17T05:52:37;16.10;86.40
40932;DHT22;36257;46.052;12.540;2023-05-17T05:55:03;16.10;86.60
40932;DHT22;36257;46.052;12.540;2023-05-17T05:57:28;16.30;86.20
40932;DHT22;36257;46.052;12.540;2023-05-17T05:59:54;16.30;85.00
40932;DHT22;36257;46.052;12.540;2023-05-17T06:02:20;16.40;84.40
40932;DHT22;36257;46.052;12.540;2023-05-17T06:04:46;16.30;86.10
40932;DHT22;36257;46.052;12.540;2023-05-17T06:07:13;16.40;84.20
40932;DHT22;36257;46.052;12.540;2023-05-17T06:09:39;16.40;84.70
40932;DHT22;36257;46.052;12.540;2023-05-17T06:12:05;16.50;83.80
40932;DHT22;36257;46.052;12.540;2023-05-17T06:14:31;16.60;83.50
40932;DHT22;36257;46.052;12.540;2023-05-17T06:16:56;16.60;83.40
40932;DHT22;36257;46.052;12.540;2023-05-17T06:19:22;16.70;84.00
40932;DHT22;36257;46.052;12.540;2023-05-17T06:21:47;16.80;83.50
40932;DHT22;36257;46.052;12.540;2023-05-17T06:24:13;16.80;84.40
40932;DHT22;36257;46.052;12.540;2023-05-17T06:26:39;16.80;83.60
40932;DHT22;36257;46.052;12.540;2023-05-17T06:29:05;16.90;84.00
40932;DHT22;36257;46.052;12.540;2023-05-17T06:31:31;17.00;83.10
40932;DHT22;36257;46.052;12.540;2023-05-17T06:33:56;17.00;83.10
40932;DHT22;36257;46.052;12.540;2023-05-17T06:36:22;17.00;85.10
40932;DHT22;36257;46.052;12.540;2023-05-17T06:38:49;17.10;84.50
40932;DHT22;36257;46.052;12.540;2023-05-17T06:41:14;17.10;82.20
40932;DHT22;36257;46.052;12.540;2023-05-17T06:43:40;17.30;82.70
40932;DHT22;36257;46.052;12.540;2023-05-17T06:46:06;17.20;83.90
40932;DHT22;36257;46.052;12.540;2023-05-17T06:48:31;17.20;83.10
40932;DHT22;36257;46.052;12.540;2023-05-17T06:50:57;17.20;82.40
40932;DHT22;36257;46.052;12.540;2023-05-17T06:53:23;17.50;80.40
40932;DHT22;36257;46.052;12.540;2023-05-17T06:55:48;17.60;80.90
40932;DHT22;36257;46.052;12.540;2023-05-17T06:58:14;17.70;80.00
40932;DHT22;36257;46.052;12.540;2023-05-17T07:00:40;17.90;78.20
40932;DHT22;36257;46.052;12.540;2023-05-17T07:03:05;18.00;75.50
40932;DHT22;36257;46.052;12.540;2023-05-17T07:05:31;18.20;77.70
40932;DHT22;36257;46.052;12.540;2023-05-17T07:07:58;18.40;75.30
40932;DHT22;36257;46.052;12.540;2023-05-17T07:10:23;18.40;75.90
40932;DHT22;36257;46.052;12.540;2023-05-17T07:12:49;18.60;79.10
40932;DHT22;36257;46.052;12.540;2023-05-17T07:15:15;18.60;74.10
40932;DHT22;36257;46.052;12.540;2023-05-17T07:17:40;18.70;76.60
40932;DHT22;36257;46.052;12.540;2023-05-17T07:20:06;18.70;76.70
40932;DHT22;36257;46.052;12.540;2023-05-17T07:22:32;18.70;77.10
40932;DHT22;36257;46.052;12.540;2023-05-17T07:24:58;18.70;76.50
40932;DHT22;36257;46.052;12.540;2023-05-17T07:27:24;18.60;78.50
40932;DHT22;36257;46.052;12.540;2023-05-17T07:29:49;18.60;79.60
40932;DHT22;36257;46.052;12.540;2023-05-17T07:32:15;18.50;80.60
40932;DHT22;36257;46.052;12.540;2023-05-17T07:34:42;18.40;82.30
40932;DHT22;36257;46.052;12.540;2023-05-17T07:37:08;18.30;83.20
40932;DHT22;36257;46.052;12.540;2023-05-17T07:39:33;18.00;82.90
40932;DHT22;36257;46.052;12.540;2023-05-17T07:41:59;17.90;84.30
40932;DHT22;36257;46.052;12.540;2023-05-17T07:44:25;17.90;85.50
40932;DHT22;36257;46.052;12.540;2023-05-17T07:46:50;18.00;86.00
40932;DHT22;36257;46.052;12.540;2023-05-17T07:49:16;18.10;85.30
40932;DHT22;36257;46.052;12.540;2023-05-17T07:51:42;18.10;87.00
40932;DHT22;36257;46.052;12.540;2023-05-17T07:54:07;18.20;86.60
40932;DHT22;36257;46.052;12.540;2023-05-17T07:56:33;18.30;86.00
40932;DHT22;36257;46.052;12.540;2023-05-17T07:58:59;18.40;85.50
40932;DHT22;36257;46.052;12.540;2023-05-17T08:01:25;18.40;84.90
40932;DHT22;36257;46.052;12.540;2023-05-17T08:03:51;18.50;84.40
40932;DHT22;36257;46.052;12.540;2023-05-17T08:06:17;18.50;85.30
40932;DHT22;36257;46.052;12.540;2023-05-17T08:08:43;18.60;84.40
40932;DHT22;36257;46.052;12.540;2023-05-17T08:11:09;18.70;82.30
40932;DHT22;36257;46.052;12.540;2023-05-17T08:13:35;18.70;82.10
40932;DHT22;36257;46.052;12.540;2023-05-17T08:16:01;18.80;83.40
40932;DHT22;36257;46.052;12.540;2023-05-17T08:18:31;18.80;82.80
40932;DHT22;36257;46.052;12.540;2023-05-17T08:20:57;18.80;82.70
40932;DHT22;36257;46.052;12.540;2023-05-17T08:23:22;18.80;86.10
40932;DHT22;36257;46.052;12.540;2023-05-17T08:25:48;18.90;86.30
40932;DHT22;36257;46.052;12.540;2023-05-17T08:28:14;18.90;84.90
40932;DHT22;36257;46.052;12.540;2023-05-17T08:30:40;18.80;84.40
40932;DHT22;36257;46.052;12.540;2023-05-17T08:33:08;18.70;85.80
40932;DHT22;36257;46.052;12.540;2023-05-17T08:35:34;18.70;87.10
40932;DHT22;36257;46.052;12.540;2023-05-17T08:38:00;18.70;88.20
40932;DHT22;36257;46.052;12.540;2023-05-17T08:40:26;18.70;87.60
40932;DHT22;36257;46.052;12.540;2023-05-17T08:42:52;18.70;87.20
40932;DHT22;36257;46.052;12.540;2023-05-17T08:45:18;18.60;87.60
40932;DHT22;36257;46.052;12.540;2023-05-17T08:47:44;18.60;86.00
40932;DHT22;36257;46.052;12.540;2023-05-17T08:50:11;18.40;86.90
40932;DHT22;36257;46.052;12.540;2023-05-17T08:52:39;18.40;88.10
40932;DHT22;36257;46.052;12.540;2023-05-17T08:55:05;18.40;88.60
40932;DHT22;36257;46.052;12.540;2023-05-17T08:57:33;18.40;90.00
40932;DHT22;36257;46.052;12.540;2023-05-17T09:00:02;18.40;89.30
40932;DHT22;36257;46.052;12.540;2023-05-17T09:02:31;18.60;88.90
40932;DHT22;36257;46.052;12.540;2023-05-17T09:04:57;18.70;87.90
40932;DHT22;36257;46.052;12.540;2023-05-17T09:07:24;18.70;88.30
40932;DHT22;36257;46.052;12.540;2023-05-17T09:09:53;18.70;89.70
40932;DHT22;36257;46.052;12.540;2023-05-17T09:12:19;18.80;89.20
40932;DHT22;36257;46.052;12.540;2023-05-17T09:14:45;18.80;90.00
40932;DHT22;36257;46.052;12.540;2023-05-17T09:17:19;18.70;88.20
40932;DHT22;36257;46.052;12.540;2023-05-17T09:19:46;18.70;88.80
40932;DHT22;36257;46.052;12.540;2023-05-17T09:22:21;18.70;88.90
40932;DHT22;36257;46.052;12.540;2023-05-17T09:24:48;18.80;88.90
40932;DHT22;36257;46.052;12.540;2023-05-17T09:27:16;18.90;88.30
40932;DHT22;36257;46.052;12.540;2023-05-17T09:29:44;19.10;90.20
40932;DHT22;36257;46.052;12.540;2023-05-17T09:32:14;19.20;87.40
40932;DHT22;36257;46.052;12.540;2023-05-17T09:34:41;19.20;87.40
40932;DHT22;36257;46.052;12.540;2023-05-17T09:37:17;19.40;89.10
40932;DHT22;36257;46.052;12.540;2023-05-17T09:39:44;19.60;87.50
40932;DHT22;36257;46.052;12.540;2023-05-17T09:42:11;19.70;86.50
40932;DHT22;36257;46.052;12.540;2023-05-17T09:44:47;19.70;85.20
40932;DHT22;36257;46.052;12.540;2023-05-17T09:47:27;19.80;84.30
40932;DHT22;36257;46.052;12.540;2023-05-17T09:49:55;19.90;83.30
40932;DHT22;36257;46.052;12.540;2023-05-17T09:52:23;20.00;82.50
40932;DHT22;36257;46.052;12.540;2023-05-17T09:54:53;20.10;82.50
40932;DHT22;36257;46.052;12.540;2023-05-17T09:57:19;20.20;81.80
40932;DHT22;36257;46.052;12.540;2023-05-17T09:59:45;20.30;81.50
40932;DHT22;36257;46.052;12.540;2023-05-17T10:02:19;20.30;82.40
40932;DHT22;36257;46.052;12.540;2023-05-17T10:04:46;20.50;82.90
40932;DHT22;36257;46.052;12.540;2023-05-17T10:07:17;20.60;78.10
40932;DHT22;36257;46.052;12.540;2023-05-17T10:09:45;20.90;80.10
40932;DHT22;36257;46.052;12.540;2023-05-17T10:12:12;21.10;76.70
40932;DHT22;36257;46.052;12.540;2023-05-17T10:14:42;21.30;78.50
40932;DHT22;36257;46.052;12.540;2023-05-17T10:17:08;21.60;77.10
40932;DHT22;36257;46.052;12.540;2023-05-17T10:19:35;21.70;75.70
40932;DHT22;36257;46.052;12.540;2023-05-17T10:22:01;21.80;75.10
40932;DHT22;36257;46.052;12.540;2023-05-17T10:24:27;22.20;76.60
40932;DHT22;36257;46.052;12.540;2023-05-17T10:26:56;22.20;74.50
40932;DHT22;36257;46.052;12.540;2023-05-17T10:29:43;21.70;76.40
40932;DHT22;36257;46.052;12.540;2023-05-17T10:32:12;21.50;77.10
40932;DHT22;36257;46.052;12.540;2023-05-17T10:34:38;21.50;75.90
40932;DHT22;36257;46.052;12.540;2023-05-17T10:37:05;21.40;75.70
40932;DHT22;36257;46.052;12.540;2023-05-17T10:39:31;21.20;75.80
40932;DHT22;36257;46.052;12.540;2023-05-17T10:42:06;21.10;75.30
40932;DHT22;36257;46.052;12.540;2023-05-17T10:44:33;21.10;74.70
40932;DHT22;36257;46.052;12.540;2023-05-17T10:47:00;21.00;74.40
40932;DHT22;36257;46.052;12.540;2023-05-17T10:49:28;21.10;76.00
40932;DHT22;36257;46.052;12.540;2023-05-17T10:52:09;21.10;75.40
40932;DHT22;36257;46.052;12.540;2023-05-17T10:54:38;21.10;74.70
40932;DHT22;36257;46.052;12.540;2023-05-17T10:57:05;21.00;74.00
40932;DHT22;36257;46.052;12.540;2023-05-17T10:59:32;21.00;72.50
40932;DHT22;36257;46.052;12.540;2023-05-17T11:02:07;20.90;74.90
40932;DHT22;36257;46.052;12.540;2023-05-17T11:04:38;21.00;76.50
40932;DHT22;36257;46.052;12.540;2023-05-17T11:09:44;20.90;76.40
40932;DHT22;36257;46.052;12.540;2023-05-17T11:12:11;21.00;75.00
40932;DHT22;36257;46.052;12.540;2023-05-17T11:17:17;21.00;76.00
40932;DHT22;36257;46.052;12.540;2023-05-17T11:20:04;21.00;77.10
40932;DHT22;36257;46.052;12.540;2023-05-17T11:22:48;20.90;74.20
40932;DHT22;36257;46.052;12.540;2023-05-17T11:25:15;20.70;76.20
40932;DHT22;36257;46.052;12.540;2023-05-17T11:30:27;20.70;76.90
40932;DHT22;36257;46.052;12.540;2023-05-17T11:32:59;20.70;75.50
40932;DHT22;36257;46.052;12.540;2023-05-17T11:35:27;20.70;76.00
40932;DHT22;36257;46.052;12.540;2023-05-17T11:38:15;20.70;76.70
40932;DHT22;36257;46.052;12.540;2023-05-17T11:40:43;20.60;78.20
40932;DHT22;36257;46.052;12.540;2023-05-17T11:43:19;20.60;80.60
40932;DHT22;36257;46.052;12.540;2023-05-17T11:45:48;20.50;80.00
40932;DHT22;36257;46.052;12.540;2023-05-17T11:48:15;20.60;81.10
40932;DHT22;36257;46.052;12.540;2023-05-17T11:50:43;20.60;80.20
40932;DHT22;36257;46.052;12.540;2023-05-17T11:53:09;20.60;83.30
40932;DHT22;36257;46.052;12.540;2023-05-17T11:55:43;20.50;81.70
40932;DHT22;36257;46.052;12.540;2023-05-17T11:58:10;20.50;83.80
40932;DHT22;36257;46.052;12.540;2023-05-17T12:00:39;20.60;83.10
40932;DHT22;36257;46.052;12.540;2023-05-17T12:03:25;20.60;83.50
40932;DHT22;36257;46.052;12.540;2023-05-17T12:06:01;20.80;82.30
40932;DHT22;36257;46.052;12.540;2023-05-17T12:08:27;20.70;81.10
40932;DHT22;36257;46.052;12.540;2023-05-17T12:10:53;20.70;80.30
40932;DHT22;36257;46.052;12.540;2023-05-17T12:13:21;20.80;83.50
40932;DHT22;36257;46.052;12.540;2023-05-17T12:15:55;21.10;81.30
40932;DHT22;36257;46.052;12.540;2023-05-17T12:18:22;21.30;81.50
40932;DHT22;36257;46.052;12.540;2023-05-17T12:20:58;21.40;80.40
40932;DHT22;36257;46.052;12.540;2023-05-17T12:23:32;21.50;81.60
40932;DHT22;36257;46.052;12.540;2023-05-17T12:26:05;21.50;80.00
40932;DHT22;36257;46.052;12.540;2023-05-17T12:28:31;21.30;79.00
40932;DHT22;36257;46.052;12.540;2023-05-17T12:30:59;21.20;80.00
40932;DHT22;36257;46.052;12.540;2023-05-17T12:33:38;21.20;80.80
40932;DHT22;36257;46.052;12.540;2023-05-17T12:36:10;21.10;84.60
40932;DHT22;36257;46.052;12.540;2023-05-17T12:38:39;21.00;85.10
40932;DHT22;36257;46.052;12.540;2023-05-17T12:41:06;21.00;85.50
40932;DHT22;36257;46.052;12.540;2023-05-17T12:43:34;20.90;85.10
40932;DHT22;36257;46.052;12.540;2023-05-17T12:46:12;20.70;85.60
40932;DHT22;36257;46.052;12.540;2023-05-17T12:48:40;20.70;85.30
40932;DHT22;36257;46.052;12.540;2023-05-17T12:51:10;20.80;85.80
40932;DHT22;36257;46.052;12.540;2023-05-17T12:53:41;20.80;86.80
40932;DHT22;36257;46.052;12.540;2023-05-17T12:56:13;21.00;85.40
40932;DHT22;36257;46.052;12.540;2023-05-17T12:58:39;21.00;85.40
40932;DHT22;36257;46.052;12.540;2023-05-17T13:01:05;21.20;86.10
40932;DHT22;36257;46.052;12.540;2023-05-17T13:03:35;21.30;84.70
40932;DHT22;36257;46.052;12.540;2023-05-17T13:06:05;21.30;84.20
40932;DHT22;36257;46.052;12.540;2023-05-17T13:08:32;21.30;83.20
40932;DHT22;36257;46.052;12.540;2023-05-17T13:11:25;21.10;84.10
40932;DHT22;36257;46.052;12.540;2023-05-17T13:13:50;21.30;85.80
40932;DHT22;36257;46.052;12.540;2023-05-17T13:16:16;21.50;83.30
40932;DHT22;36257;46.052;12.540;2023-05-17T13:18:51;21.60;83.60
40932;DHT22;36257;46.052;12.540;2023-05-17T13:21:18;21.60;84.00
40932;DHT22;36257;46.052;12.540;2023-05-17T13:23:48;21.90;84.90
40932;DHT22;36257;46.052;12.540;2023-05-17T13:26:15;21.90;81.80
40932;DHT22;36257;46.052;12.540;2023-05-17T13:28:41;21.80;83.80
40932;DHT22;36257;46.052;12.540;2023-05-17T13:31:07;21.70;82.70
40932;DHT22;36257;46.052;12.540;2023-05-17T13:33:33;21.80;83.80
40932;DHT22;36257;46.052;12.540;2023-05-17T13:35:59;21.90;83.40
40932;DHT22;36257;46.052;12.540;2023-05-17T13:38:25;21.90;81.80
40932;DHT22;36257;46.052;12.540;2023-05-17T13:40:50;22.00;81.10
40932;DHT22;36257;46.052;12.540;2023-05-17T13:43:16;21.90;81.10
40932;DHT22;36257;46.052;12.540;2023-05-17T13:45:42;22.00;81.80
40932;DHT22;36257;46.052;12.540;2023-05-17T13:48:07;22.10;80.20
40932;DHT22;36257;46.052;12.540;2023-05-17T13:50:36;21.90;77.40
40932;DHT22;36257;46.052;12.540;2023-05-17T13:53:02;21.80;77.70
40932;DHT22;36257;46.052;12.540;2023-05-17T13:55:27;21.70;78.30
40932;DHT22;36257;46.052;12.540;2023-05-17T13:57:53;21.80;77.50
40932;DHT22;36257;46.052;12.540;2023-05-17T14:00:19;21.60;76.50
40932;DHT22;36257;46.052;12.540;2023-05-17T14:02:45;21.60;81.20
40932;DHT22;36257;46.052;12.540;2023-05-17T14:05:11;21.60;77.10
40932;DHT22;36257;46.052;12.540;2023-05-17T14:07:36;21.80;78.60
40932;DHT22;36257;46.052;12.540;2023-05-17T14:10:08;21.80;75.80
40932;DHT22;36257;46.052;12.540;2023-05-17T14:12:34;21.90;78.20
40932;DHT22;36257;46.052;12.540;2023-05-17T14:14:59;22.00;76.40
40932;DHT22;36257;46.052;12.540;2023-05-17T14:17:25;22.00;75.80
40932;DHT22;36257;46.052;12.540;2023-05-17T14:19:51;22.00;73.70
40932;DHT22;36257;46.052;12.540;2023-05-17T14:22:17;21.90;73.00
40932;DHT22;36257;46.052;12.540;2023-05-17T14:24:42;21.90;74.20
40932;DHT22;36257;46.052;12.540;2023-05-17T14:27:08;21.80;75.20
40932;DHT22;36257;46.052;12.540;2023-05-17T14:29:34;21.80;73.60
40932;DHT22;36257;46.052;12.540;2023-05-17T14:31:59;21.70;74.30
40932;DHT22;36257;46.052;12.540;2023-05-17T14:34:25;21.70;74.70
40932;DHT22;36257;46.052;12.540;2023-05-17T14:36:50;21.70;76.00
40932;DHT22;36257;46.052;12.540;2023-05-17T14:39:16;21.80;75.20
40932;DHT22;36257;46.052;12.540;2023-05-17T14:41:42;21.90;75.50
40932;DHT22;36257;46.052;12.540;2023-05-17T14:44:07;22.00;73.70
40932;DHT22;36257;46.052;12.540;2023-05-17T14:46:33;22.10;73.20
40932;DHT22;36257;46.052;12.540;2023-05-17T14:48:59;22.20;75.00
40932;DHT22;36257;46.052;12.540;2023-05-17T14:51:25;22.30;73.60
40932;DHT22;36257;46.052;12.540;2023-05-17T14:53:51;22.30;75.20
40932;DHT22;36257;46.052;12.540;2023-05-17T14:56:17;22.30;71.70
40932;DHT22;36257;46.052;12.540;2023-05-17T14:58:42;22.30;73.10
40932;DHT22;36257;46.052;12.540;2023-05-17T15:01:08;22.20;73.40
40932;DHT22;36257;46.052;12.540;2023-05-17T15:03:34;22.10;72.60
40932;DHT22;36257;46.052;12.540;2023-05-17T15:06:00;22.00;73.40
40932;DHT22;36257;46.052;12.540;2023-05-17T15:08:27;21.90;74.80
40932;DHT22;36257;46.052;12.540;2023-05-17T15:10:52;21.80;73.30
40932;DHT22;36257;46.052;12.540;2023-05-17T15:13:19;21.60;73.70
40932;DHT22;36257;46.052;12.540;2023-05-17T15:15:45;21.50;74.80
40932;DHT22;36257;46.052;12.540;2023-05-17T15:18:11;21.40;74.90
40932;DHT22;36257;46.052;12.540;2023-05-17T15:20:39;21.40;73.70
40932;DHT22;36257;46.052;12.540;2023-05-17T15:23:05;21.20;73.60
40932;DHT22;36257;46.052;12.540;2023-05-17T15:25:31;21.00;74.70
40932;DHT22;36257;46.052;12.540;2023-05-17T15:27:56;20.80;75.90
40932;DHT22;36257;46.052;12.540;2023-05-17T15:30:22;20.60;77.60